createdAt,value
2022-08-11T00:01:27.798Z,18.76
2022-08-11T00:04:01.635Z,18.83
2022-08-11T00:06:34.728Z,18.95
2022-08-11T00:09:06.752Z,19.06
2022-08-11T00:11:39.295Z,19.19
2022-08-11T00:14:20.515Z,19.22
2022-08-11T00:16:59.301Z,19.19
2022-08-11T00:20:14.629Z,19.24
2022-08-11T00:22:24.558Z,19.38
2022-08-11T00:24:58.534Z,19.40
2022-08-11T00:27:34.738Z,19.48
2022-08-11T00:30:04.464Z,19.55
2022-08-11T00:32:34.603Z,19.55
2022-08-11T00:35:55.749Z,19.46
2022-08-11T00:38:01.092Z,19.47
2022-08-11T00:40:39.055Z,19.56
2022-08-11T00:43:21.226Z,19.58
2022-08-11T00:46:13.500Z,19.61
2022-08-11T00:49:00.749Z,19.67
2022-08-11T00:52:02.348Z,19.58
2022-08-11T00:55:22.590Z,19.48
2022-08-11T00:59:05.372Z,19.56
2022-08-11T01:02:12.237Z,19.62
2022-08-11T01:05:28.717Z,19.60
2022-08-11T01:08:59.223Z,19.56
2022-08-11T01:12:21.702Z,19.41
2022-08-11T01:15:43.798Z,19.30
2022-08-11T01:19:09.785Z,19.18
2022-08-11T01:22:27.619Z,19.02
2022-08-11T01:25:59.592Z,18.92
2022-08-11T01:29:19.669Z,18.83
2022-08-11T01:32:41.532Z,18.79
2022-08-11T01:35:45.781Z,18.80
2022-08-11T01:39:00.109Z,18.71
2022-08-11T01:42:10.554Z,18.59
2022-08-11T01:45:24.493Z,18.57
2022-08-11T01:48:06.730Z,18.46
2022-08-11T01:51:30.193Z,18.37
2022-08-11T01:54:06.633Z,18.37
2022-08-11T01:56:50.940Z,18.39
2022-08-11T01:59:26.312Z,18.37
2022-08-11T02:02:48.542Z,18.25
2022-08-11T02:05:29.998Z,18.18
2022-08-11T02:08:14.941Z,18.18
2022-08-11T02:11:16.435Z,18.06
2022-08-11T02:13:52.958Z,17.80
2022-08-11T02:16:41.840Z,17.75
2022-08-11T02:19:42.548Z,17.60
2022-08-11T02:22:48.929Z,17.66
2022-08-11T02:25:31.870Z,17.67
2022-08-11T02:28:09.542Z,17.72
2022-08-11T02:31:22.542Z,17.58
2022-08-11T02:34:18.917Z,17.49
2022-08-11T02:37:16.011Z,17.63
2022-08-11T02:40:13.001Z,17.54
2022-08-11T02:43:02.889Z,17.56
2022-08-11T02:45:49.215Z,17.45
2022-08-11T02:48:52.112Z,17.53
2022-08-11T02:51:40.427Z,17.66
2022-08-11T02:54:22.345Z,17.56
2022-08-11T02:57:00.866Z,17.40
2022-08-11T02:59:54.241Z,17.38
2022-08-11T03:02:41.177Z,17.28
2022-08-11T03:05:27.482Z,16.99
2022-08-11T03:08:24.434Z,16.89
2022-08-11T03:11:23.872Z,16.78
2022-08-11T03:14:34.625Z,16.75
2022-08-11T03:17:26.165Z,16.75
2022-08-11T03:20:16.645Z,16.71
2022-08-11T03:23:02.811Z,16.50
2022-08-11T03:25:46.359Z,16.45
2022-08-11T03:28:32.253Z,16.28
2022-08-11T03:31:24.816Z,16.29
2022-08-11T03:34:06.274Z,16.29
2022-08-11T03:37:16.207Z,16.35
2022-08-11T03:40:04.695Z,16.36
2022-08-11T03:42:47.600Z,16.40
2022-08-11T03:45:27.219Z,16.49
2022-08-11T03:48:24.407Z,16.51
2022-08-11T03:51:20.121Z,16.49
2022-08-11T03:54:26.467Z,16.56
2022-08-11T03:57:47.449Z,16.57
2022-08-11T04:00:51.968Z,16.49
2022-08-11T04:04:00.669Z,16.44
2022-08-11T04:07:09.503Z,16.29
2022-08-11T04:10:49.377Z,16.17
2022-08-11T04:14:20.474Z,16.13
2022-08-11T04:17:20.048Z,16.15
2022-08-11T04:20:37.294Z,16.27
2022-08-11T04:24:36.061Z,16.41
2022-08-11T04:27:10.580Z,16.48
2022-08-11T04:30:09.122Z,16.45
2022-08-11T04:33:34.345Z,16.55
2022-08-11T04:36:50.400Z,16.70
2022-08-11T04:39:40.562Z,16.80
2022-08-11T04:43:21.826Z,16.90
2022-08-11T04:46:27.245Z,17.02
2022-08-11T04:50:14.084Z,17.14
2022-08-11T04:53:34.019Z,17.34
2022-08-11T04:56:36.951Z,17.45
2022-08-11T05:00:11.524Z,17.63
2022-08-11T05:03:39.816Z,17.77
2022-08-11T05:06:58.664Z,18.00
2022-08-11T05:09:50.128Z,18.19
2022-08-11T05:12:37.681Z,18.21
2022-08-11T05:15:31.964Z,18.37
2022-08-11T05:18:35.868Z,18.60
2022-08-11T05:21:30.434Z,18.74
2022-08-11T05:24:40.754Z,18.83
2022-08-11T05:27:29.766Z,19.03
2022-08-11T05:30:23.721Z,19.07
2022-08-11T05:33:22.069Z,19.11
2022-08-11T05:36:03.893Z,19.32
2022-08-11T05:38:55.358Z,19.64
2022-08-11T05:41:45.860Z,19.75
2022-08-11T05:44:39.473Z,19.65
2022-08-11T05:47:28.684Z,19.84
2022-08-11T05:50:15.768Z,19.77
2022-08-11T05:53:09.285Z,20.05
2022-08-11T05:56:03.847Z,20.11
2022-08-11T05:58:42.415Z,20.17
2022-08-11T06:01:14.169Z,20.35
2022-08-11T06:04:04.570Z,20.56
2022-08-11T06:06:33.510Z,20.65
2022-08-11T06:09:03.259Z,20.83
2022-08-11T06:11:43.515Z,20.67
2022-08-11T06:14:16.417Z,20.70
2022-08-11T06:16:49.708Z,20.77
2022-08-11T06:19:27.583Z,20.75
2022-08-11T06:21:57.029Z,20.74
2022-08-11T06:24:26.060Z,20.80
2022-08-11T06:27:13.873Z,20.94
2022-08-11T06:29:54.996Z,21.11
2022-08-11T06:32:32.403Z,21.38
2022-08-11T06:35:17.887Z,21.40
2022-08-11T06:38:02.647Z,21.53
2022-08-11T06:40:43.193Z,21.59
2022-08-11T06:43:23.369Z,21.73
2022-08-11T06:46:05.874Z,21.57
2022-08-11T06:48:36.357Z,21.55
2022-08-11T06:51:13.640Z,21.77
2022-08-11T06:54:02.805Z,21.91
2022-08-11T06:57:12.512Z,22.19
2022-08-11T07:00:02.128Z,22.24
2022-08-11T07:02:35.454Z,22.15
2022-08-11T07:05:13.494Z,22.33
2022-08-11T07:09:03.735Z,22.41
2022-08-11T07:12:21.666Z,22.61
2022-08-11T07:15:17.434Z,22.79
2022-08-11T07:18:12.522Z,22.97
2022-08-11T07:21:02.114Z,22.90
2022-08-11T07:23:55.528Z,23.10
2022-08-11T07:26:57.913Z,23.41
2022-08-11T07:29:30.736Z,23.30
2022-08-11T07:32:08.339Z,23.46
2022-08-11T07:34:44.315Z,23.26
2022-08-11T07:37:19.785Z,23.63
2022-08-11T07:39:51.977Z,23.73
2022-08-11T07:42:31.518Z,24.11
2022-08-11T07:45:19.163Z,24.33
2022-08-11T07:48:06.351Z,24.35
2022-08-11T07:50:56.142Z,24.51
2022-08-11T07:53:25.924Z,24.93
2022-08-11T07:56:00.855Z,25.04
2022-08-11T07:58:53.167Z,25.29
2022-08-11T08:01:43.878Z,25.59
2022-08-11T08:04:35.112Z,25.16
2022-08-11T08:07:23.770Z,25.35
2022-08-11T08:10:16.071Z,25.83
2022-08-11T08:13:04.246Z,26.21
2022-08-11T08:15:50.711Z,26.18
2022-08-11T08:18:26.445Z,26.58
2022-08-11T08:21:12.207Z,26.35
2022-08-11T08:23:43.120Z,25.81
2022-08-11T08:26:34.252Z,26.11
2022-08-11T08:29:25.094Z,26.16
2022-08-11T08:31:56.594Z,26.16
2022-08-11T08:34:26.682Z,26.14
2022-08-11T08:36:56.332Z,26.03
2022-08-11T08:39:25.946Z,26.46
2022-08-11T08:41:58.637Z,26.56
2022-08-11T08:44:40.607Z,26.47
2022-08-11T08:47:15.214Z,26.74
2022-08-11T08:50:09.485Z,26.67
2022-08-11T08:52:53.402Z,26.63
2022-08-11T08:55:23.546Z,27.14
2022-08-11T08:57:55.790Z,26.86
2022-08-11T09:00:26.150Z,26.77
2022-08-11T09:02:55.265Z,26.87
2022-08-11T09:05:25.872Z,27.05
2022-08-11T09:07:58.103Z,26.96
2022-08-11T09:10:30.904Z,27.00
2022-08-11T09:13:02.244Z,26.91
2022-08-11T09:15:33.004Z,26.88
2022-08-11T09:18:06.010Z,26.72
2022-08-11T09:20:38.520Z,26.99
2022-08-11T09:24:07.671Z,27.15
2022-08-11T09:26:35.098Z,27.08
2022-08-11T09:29:05.376Z,27.08
2022-08-11T09:31:40.041Z,27.05
2022-08-11T09:34:11.254Z,26.98
2022-08-11T09:37:00.217Z,26.69
2022-08-11T09:39:49.137Z,26.97
2022-08-11T09:42:24.016Z,26.87
2022-08-11T09:44:54.058Z,26.60
2022-08-11T09:47:27.284Z,26.67
2022-08-11T09:50:01.800Z,27.25
2022-08-11T09:52:52.371Z,27.67
2022-08-11T09:55:27.368Z,28.21
2022-08-11T09:58:35.173Z,27.98
2022-08-11T10:01:07.942Z,28.66
2022-08-11T10:03:43.985Z,29.02
2022-08-11T10:06:34.390Z,29.26
2022-08-11T10:09:07.325Z,28.98
2022-08-11T10:11:40.471Z,28.65
2022-08-11T10:14:33.664Z,28.36
2022-08-11T10:17:09.185Z,28.93
2022-08-11T10:19:40.799Z,29.33
2022-08-11T10:22:27.925Z,29.27
2022-08-11T10:28:33.742Z,29.83
2022-08-11T10:31:39.571Z,29.48
2022-08-11T10:34:40.229Z,29.57
2022-08-11T10:37:24.308Z,29.92
2022-08-11T10:40:19.455Z,29.40
2022-08-11T10:43:08.011Z,29.86
2022-08-11T10:45:57.576Z,30.15
2022-08-11T10:48:30.647Z,29.35
2022-08-11T10:51:49.876Z,28.87
2022-08-11T10:54:24.930Z,29.73
2022-08-11T10:57:13.778Z,31.30
2022-08-11T10:59:44.114Z,32.46
2022-08-11T11:02:16.476Z,31.17
2022-08-11T11:05:09.406Z,31.03
2022-08-11T11:07:51.304Z,31.01
2022-08-11T11:10:21.489Z,30.68
2022-08-11T11:13:15.498Z,30.02
2022-08-11T11:16:06.587Z,30.27
2022-08-11T11:18:39.090Z,29.91
2022-08-11T11:21:11.364Z,30.07
2022-08-11T11:23:50.538Z,30.41
2022-08-11T11:26:42.209Z,30.25
2022-08-11T11:29:54.602Z,31.65
2022-08-11T11:32:38.691Z,32.02
2022-08-11T11:35:37.786Z,32.46
2022-08-11T11:38:13.818Z,32.24
2022-08-11T11:41:10.214Z,32.07
2022-08-11T11:43:39.151Z,31.80
2022-08-11T11:46:10.655Z,31.38
2022-08-11T11:48:39.819Z,30.88
2022-08-11T11:51:09.329Z,30.88
2022-08-11T11:53:38.345Z,30.91
2022-08-11T11:56:10.028Z,30.36
2022-08-11T11:58:59.172Z,31.03
2022-08-11T12:01:28.770Z,30.70
2022-08-11T12:03:59.550Z,31.12
2022-08-11T12:06:29.171Z,30.81
2022-08-11T12:09:00.996Z,31.50
2022-08-11T12:11:50.350Z,31.60
2022-08-11T12:14:28.711Z,31.33
2022-08-11T12:16:59.045Z,31.21
2022-08-11T12:19:29.806Z,30.92
2022-08-11T12:22:23.436Z,31.20
2022-08-11T12:25:12.345Z,30.86
2022-08-11T12:27:45.749Z,30.25
2022-08-11T12:30:15.410Z,31.20
2022-08-11T12:32:45.486Z,32.13
2022-08-11T12:35:17.793Z,32.69
2022-08-11T12:37:50.563Z,32.66
2022-08-11T12:41:11.705Z,32.00
2022-08-11T12:43:57.152Z,30.86
2022-08-11T12:46:32.617Z,31.93
2022-08-11T12:49:29.047Z,31.86
2022-08-11T12:52:13.551Z,30.97
2022-08-11T12:54:57.207Z,30.58
2022-08-11T12:57:50.612Z,30.30
2022-08-11T13:00:40.529Z,30.35
2022-08-11T13:03:29.789Z,31.00
2022-08-11T13:06:04.838Z,31.17
2022-08-11T13:08:37.705Z,31.22
2022-08-11T13:11:55.487Z,30.74
2022-08-11T13:14:18.379Z,30.21
2022-08-11T13:17:07.354Z,30.34
2022-08-11T13:19:38.861Z,30.09
2022-08-11T13:22:07.631Z,30.27
2022-08-11T13:24:38.087Z,30.36
2022-08-11T13:27:07.704Z,30.11
2022-08-11T13:29:37.583Z,30.32
2022-08-11T13:32:11.662Z,30.28
2022-08-11T13:34:45.073Z,30.85
2022-08-11T13:37:20.495Z,31.84
2022-08-11T13:40:12.276Z,31.25
2022-08-11T13:42:42.926Z,31.47
2022-08-11T13:45:14.162Z,31.27
2022-08-11T13:47:44.894Z,30.10
2022-08-11T13:50:16.175Z,30.12
2022-08-11T13:52:53.152Z,30.28
2022-08-11T13:55:51.728Z,30.16
2022-08-11T13:58:20.623Z,30.46
2022-08-11T14:01:11.271Z,30.18
2022-08-11T14:04:28.670Z,29.92
2022-08-11T14:07:00.085Z,30.35
2022-08-11T14:09:37.105Z,30.72
2022-08-11T14:12:33.302Z,30.47
2022-08-11T14:15:10.116Z,30.64
2022-08-11T14:17:48.089Z,29.72
2022-08-11T14:20:40.542Z,30.14
2022-08-11T14:23:14.849Z,30.31
2022-08-11T14:26:04.868Z,29.78
2022-08-11T14:28:40.309Z,29.89
2022-08-11T14:31:16.074Z,29.53
2022-08-11T14:34:01.144Z,29.45
2022-08-11T14:36:36.909Z,29.45
2022-08-11T14:39:13.175Z,29.44
2022-08-11T14:42:11.754Z,29.58
2022-08-11T14:45:03.934Z,29.60
2022-08-11T14:47:36.805Z,29.42
2022-08-11T14:50:11.606Z,29.08
2022-08-11T14:52:50.914Z,29.58
2022-08-11T14:55:40.264Z,29.31
2022-08-11T14:58:12.833Z,29.53
2022-08-11T15:00:44.193Z,29.65
2022-08-11T15:03:14.433Z,29.01
2022-08-11T15:05:56.813Z,28.93
2022-08-11T15:08:48.359Z,28.62
2022-08-11T15:11:38.020Z,28.89
2022-08-11T15:14:09.461Z,28.98
2022-08-11T15:17:00.557Z,29.18
2022-08-11T15:19:41.047Z,29.23
2022-08-11T15:22:34.217Z,29.09
2022-08-11T15:25:04.113Z,29.01
2022-08-11T15:27:52.979Z,28.92
2022-08-11T15:30:41.195Z,29.02
2022-08-11T15:33:30.501Z,28.58
2022-08-11T15:36:20.045Z,28.52
2022-08-11T15:38:56.050Z,28.73
2022-08-11T15:41:58.882Z,28.61
2022-08-11T15:45:05.704Z,28.52
2022-08-11T15:47:43.714Z,28.69
2022-08-11T15:50:21.776Z,28.47
2022-08-11T15:52:57.529Z,28.42
2022-08-11T15:55:29.933Z,28.73
2022-08-11T15:58:22.709Z,28.36
2022-08-11T16:01:11.512Z,28.40
2022-08-11T16:04:08.918Z,28.71
2022-08-11T16:06:49.348Z,28.58
2022-08-11T16:09:47.133Z,28.63
2022-08-11T16:12:22.826Z,28.93
2022-08-11T16:15:14.705Z,29.38
2022-08-11T16:17:53.557Z,29.02
2022-08-11T16:20:25.874Z,28.58
2022-08-11T16:23:02.797Z,28.86
2022-08-11T16:27:03.580Z,28.97
2022-08-11T16:28:29.101Z,29.11
2022-08-11T16:31:10.773Z,29.24
2022-08-11T16:33:51.337Z,29.38
2022-08-11T16:36:40.105Z,29.53
2022-08-11T16:39:09.944Z,29.07
2022-08-11T16:42:00.915Z,29.41
2022-08-11T16:44:49.233Z,28.94
2022-08-11T16:48:03.312Z,28.39
2022-08-11T16:50:11.625Z,27.70
2022-08-11T16:52:40.361Z,27.36
2022-08-11T16:55:10.818Z,27.27
2022-08-11T16:57:58.987Z,27.23
2022-08-11T17:00:30.507Z,27.10
2022-08-11T17:03:21.622Z,27.01
2022-08-11T17:06:12.091Z,26.96
2022-08-11T17:09:07.260Z,26.92
2022-08-11T17:12:01.015Z,26.90
2022-08-11T17:14:38.786Z,26.84
2022-08-11T17:17:14.518Z,26.57
2022-08-11T17:20:38.741Z,26.52
2022-08-11T17:23:00.287Z,26.52
2022-08-11T17:25:32.235Z,26.33
2022-08-11T17:28:24.506Z,26.36
2022-08-11T17:31:21.865Z,26.24
2022-08-11T17:34:11.087Z,26.10
2022-08-11T17:36:45.819Z,26.05
2022-08-11T17:39:16.953Z,25.88
2022-08-11T17:42:04.000Z,25.88
2022-08-11T17:44:52.443Z,25.89
2022-08-11T17:47:40.118Z,25.82
2022-08-11T17:50:17.014Z,25.88
2022-08-11T17:53:07.733Z,25.91
2022-08-11T17:55:57.756Z,25.66
2022-08-11T17:58:45.878Z,25.45
2022-08-11T18:01:16.942Z,25.29
2022-08-11T18:03:56.308Z,25.33
2022-08-11T18:06:34.077Z,25.20
2022-08-11T18:09:28.143Z,25.17
2022-08-11T18:12:16.191Z,25.07
2022-08-11T18:15:08.298Z,24.99
2022-08-11T18:17:55.702Z,24.95
2022-08-11T18:20:42.814Z,24.85
2022-08-11T18:23:46.428Z,24.88
2022-08-11T18:26:42.509Z,24.71
2022-08-11T18:29:32.539Z,24.62
2022-08-11T18:32:49.220Z,24.48
2022-08-11T18:35:39.116Z,24.39
2022-08-11T18:38:31.130Z,24.21
2022-08-11T18:41:26.918Z,24.03
2022-08-11T18:44:21.986Z,24.01
2022-08-11T18:47:12.274Z,23.81
2022-08-11T18:50:05.849Z,23.77
2022-08-11T18:52:55.073Z,23.70
2022-08-11T18:55:42.725Z,23.68
2022-08-11T18:58:33.277Z,23.58
2022-08-11T19:01:25.596Z,23.50
2022-08-11T19:04:17.372Z,23.37
2022-08-11T19:07:17.371Z,23.22
2022-08-11T19:10:07.818Z,23.13
2022-08-11T19:12:59.973Z,23.05
2022-08-11T19:15:48.101Z,22.97
2022-08-11T19:18:42.167Z,22.86
2022-08-11T19:21:32.480Z,22.83
2022-08-11T19:24:23.231Z,22.80
2022-08-11T19:27:12.193Z,22.81
2022-08-11T19:30:05.233Z,22.67
2022-08-11T19:33:00.336Z,22.57
2022-08-11T19:35:48.957Z,22.57
2022-08-11T19:38:36.832Z,22.54
2022-08-11T19:41:56.758Z,22.44
2022-08-11T19:44:36.195Z,22.35
2022-08-11T19:47:22.879Z,22.31
2022-08-11T19:50:12.787Z,22.27
2022-08-11T19:53:01.863Z,22.30
2022-08-11T19:56:04.815Z,22.21
2022-08-11T19:58:52.355Z,22.21
2022-08-11T20:01:38.755Z,22.11
2022-08-11T20:04:46.052Z,22.07
2022-08-11T20:07:38.301Z,22.07
2022-08-11T20:10:28.922Z,22.10
2022-08-11T20:13:21.613Z,21.98
2022-08-11T20:16:10.377Z,21.97
2022-08-11T20:19:01.376Z,21.93
2022-08-11T20:21:49.079Z,21.95
2022-08-11T20:24:38.891Z,21.93
2022-08-11T20:27:29.284Z,21.79
2022-08-11T20:30:19.097Z,21.70
2022-08-11T20:33:06.947Z,21.30
2022-08-11T20:35:54.727Z,21.25
2022-08-11T20:38:44.309Z,21.13
2022-08-11T20:41:32.438Z,20.97
2022-08-11T20:44:42.515Z,20.81
2022-08-11T20:47:30.300Z,20.63
2022-08-11T20:50:20.526Z,20.50
2022-08-11T20:53:08.835Z,20.45
2022-08-11T20:55:56.237Z,20.16
2022-08-11T20:59:17.798Z,20.06
2022-08-11T21:02:09.965Z,19.99
2022-08-11T21:05:00.103Z,19.98
2022-08-11T21:07:56.866Z,19.88
2022-08-11T21:10:51.676Z,19.71
2022-08-11T21:13:43.083Z,19.65
2022-08-11T21:16:38.319Z,19.43
2022-08-11T21:19:59.569Z,19.40
2022-08-11T21:22:59.090Z,19.41
2022-08-11T21:25:59.729Z,19.33
2022-08-11T21:28:47.317Z,19.15
2022-08-11T21:31:37.027Z,19.11
2022-08-11T21:34:27.059Z,19.12
2022-08-11T21:37:13.216Z,19.14
2022-08-11T21:40:01.937Z,19.18
2022-08-11T21:42:52.358Z,19.20
2022-08-11T21:45:40.393Z,19.26
2022-08-11T21:48:29.107Z,19.28
2022-08-11T21:51:16.949Z,19.32
2022-08-11T21:54:04.483Z,19.35
2022-08-11T21:56:52.510Z,19.44
2022-08-11T21:59:50.287Z,19.39
2022-08-11T22:02:38.044Z,19.46
2022-08-11T22:05:26.081Z,19.40
2022-08-11T22:08:13.911Z,19.50
2022-08-11T22:11:00.235Z,19.52
2022-08-11T22:14:05.739Z,19.59
2022-08-11T22:16:53.161Z,19.69
2022-08-11T22:19:42.307Z,19.74
2022-08-11T22:22:31.759Z,19.86
2022-08-11T22:25:21.646Z,19.77
2022-08-11T22:28:09.414Z,19.90
2022-08-11T22:30:56.809Z,19.80
2022-08-11T22:34:02.235Z,19.73
2022-08-11T22:36:51.850Z,19.64
2022-08-11T22:39:39.922Z,19.40
2022-08-11T22:42:33.288Z,19.23
2022-08-11T22:45:20.203Z,19.02
2022-08-11T22:48:09.418Z,18.64
2022-08-11T22:50:58.690Z,18.69
2022-08-11T22:53:57.456Z,18.63
2022-08-11T22:56:46.590Z,18.63
2022-08-11T22:59:36.422Z,18.71
2022-08-11T23:02:25.111Z,18.78
2022-08-11T23:05:12.633Z,18.77
2022-08-11T23:07:59.982Z,18.74
2022-08-11T23:10:47.097Z,18.79
2022-08-11T23:13:34.609Z,18.72
2022-08-11T23:16:25.881Z,18.72
2022-08-11T23:19:13.458Z,18.73
2022-08-11T23:22:00.421Z,18.63
2022-08-11T23:24:46.706Z,18.39
2022-08-11T23:27:33.554Z,18.41
2022-08-11T23:30:21.658Z,18.33
2022-08-11T23:33:17.073Z,18.27
2022-08-11T23:36:08.407Z,18.14
2022-08-11T23:38:55.576Z,18.11
2022-08-11T23:41:42.172Z,18.01
2022-08-11T23:44:28.661Z,17.84
2022-08-11T23:47:18.525Z,17.75
2022-08-11T23:50:07.265Z,17.76
2022-08-11T23:52:54.461Z,17.58
2022-08-11T23:55:40.633Z,17.69
2022-08-11T23:58:27.225Z,17.66
